Time;durP1;ratioP1;P1;durP2;ratioP2;P2;SDS_P1;SDS_P2;PMS_P1;PMS_P2;Temp;Humidity;BMP_temperature;BMP_pressure;BME280_temperature;BME280_humidity;BME280_pressure;Samples;Min_cycle;Max_cycle;Signal;HPM_P1;HPM_P2
2022/07/22 00:00:00;;;;;;;8.15;2.20;;;16.30;99.90;;;;;;4962505;28;20034;-57
2022/07/22 00:02:26;;;;;;;11.95;2.50;;;16.20;99.90;;;;;;4961633;28;20561;-55
2022/07/22 00:04:52;;;;;;;9.60;2.40;;;16.30;99.90;;;;;;4961871;28;20046;-56
2022/07/22 00:07:17;;;;;;;13.70;2.70;;;16.30;99.90;;;;;;4970596;28;20298;-57
2022/07/22 00:09:43;;;;;;;11.50;2.88;;;16.10;99.90;;;;;;4979163;28;20042;-56
2022/07/22 00:12:09;;;;;;;12.20;3.17;;;16.20;99.90;;;;;;4981048;28;20046;-57
2022/07/22 00:14:34;;;;;;;12.95;3.45;;;16.20;99.90;;;;;;4981464;28;20477;-56
2022/07/22 00:17:00;;;;;;;12.10;3.10;;;16.30;99.90;;;;;;4981605;28;20062;-57
2022/07/22 00:19:26;;;;;;;13.68;3.25;;;16.30;99.90;;;;;;4980768;28;20084;-56
2022/07/22 00:21:52;;;;;;;12.45;3.58;;;16.20;99.90;;;;;;4981041;28;20045;-57
2022/07/22 00:24:18;;;;;;;12.00;3.70;;;16.20;99.90;;;;;;4981044;28;20054;-56
2022/07/22 00:26:43;;;;;;;17.00;3.85;;;16.20;99.90;;;;;;4981740;28;20056;-57
2022/07/22 00:29:09;;;;;;;18.00;4.20;;;16.20;99.90;;;;;;4981467;28;20042;-56
2022/07/22 00:31:36;;;;;;;16.67;4.07;;;16.20;99.90;;;;;;4980878;28;20249;-55
2022/07/22 00:34:02;;;;;;;13.88;3.78;;;16.20;99.90;;;;;;4980826;28;20050;-56
2022/07/22 00:36:30;;;;;;;18.45;4.25;;;16.10;99.90;;;;;;4980936;28;20058;-56
2022/07/22 00:38:56;;;;;;;16.58;5.07;;;16.20;99.90;;;;;;4981444;28;20359;-57
2022/07/22 00:41:21;;;;;;;15.85;4.63;;;16.20;99.90;;;;;;4980469;28;20054;-55
2022/07/22 00:43:58;;;;;;;13.70;4.20;;;16.30;99.90;;;;;;4981259;28;20517;-56
2022/07/22 00:46:24;;;;;;;11.75;4.55;;;16.30;99.90;;;;;;4980152;28;20053;-57
2022/07/22 00:48:50;;;;;;;17.08;4.93;;;16.10;99.90;;;;;;4979872;28;20409;-56
2022/07/22 00:51:17;;;;;;;21.30;5.80;;;16.30;99.90;;;;;;4979674;28;20046;-57
2022/07/22 00:53:43;;;;;;;16.85;5.03;;;16.20;99.90;;;;;;4980270;28;20133;-56
2022/07/22 00:56:10;;;;;;;13.35;4.80;;;16.10;99.90;;;;;;4981223;28;20552;-56
2022/07/22 00:58:36;;;;;;;15.40;5.65;;;16.20;99.90;;;;;;4980552;28;20053;-56
2022/07/22 01:01:02;;;;;;;13.52;4.93;;;16.20;99.90;;;;;;4981381;28;20046;-57
2022/07/22 01:03:28;;;;;;;21.17;6.22;;;16.00;99.90;;;;;;4980142;28;20129;-56
2022/07/22 01:05:54;;;;;;;21.17;5.75;;;16.00;99.90;;;;;;4978842;28;20139;-56
2022/07/22 01:08:19;;;;;;;17.20;5.70;;;16.00;99.90;;;;;;4970509;28;20109;-56
2022/07/22 01:10:45;;;;;;;19.65;5.90;;;16.00;99.90;;;;;;4961846;28;20100;-57
2022/07/22 01:13:11;;;;;;;17.58;5.70;;;15.80;99.90;;;;;;4962630;23;20092;-57
2022/07/22 01:15:36;;;;;;;18.17;5.55;;;15.80;99.90;;;;;;4929664;29;20081;-56
2022/07/22 01:18:02;;;;;;;16.33;6.25;;;15.80;99.90;;;;;;4922493;29;20048;-56
2022/07/22 01:20:28;;;;;;;17.55;5.88;;;15.80;99.90;;;;;;4923072;29;20039;-56
2022/07/22 01:22:54;;;;;;;16.27;5.40;;;15.80;99.90;;;;;;4923336;29;20379;-57
2022/07/22 01:25:19;;;;;;;18.33;5.78;;;15.90;99.90;;;;;;4922137;29;20126;-56
2022/07/22 01:27:45;;;;;;;17.95;5.68;;;15.90;99.90;;;;;;4923370;29;20048;-56
2022/07/22 01:30:11;;;;;;;16.85;5.40;;;15.90;99.90;;;;;;4923459;29;20083;-56
2022/07/22 01:32:37;;;;;;;19.33;5.50;;;15.80;99.90;;;;;;4906166;29;20055;-56
2022/07/22 01:35:04;;;;;;;18.42;5.05;;;15.80;99.90;;;;;;4921933;29;20114;-56
2022/07/22 01:37:31;;;;;;;18.33;5.55;;;15.80;99.90;;;;;;4922907;29;20595;-56
2022/07/22 01:39:56;;;;;;;13.38;4.90;;;15.80;99.90;;;;;;4922915;29;20082;-57
2022/07/22 01:42:22;;;;;;;17.23;5.25;;;15.90;99.90;;;;;;4922694;29;20135;-57
2022/07/22 01:44:47;;;;;;;15.15;4.72;;;15.80;99.90;;;;;;4922747;29;20088;-57
2022/07/22 01:47:13;;;;;;;14.57;4.68;;;15.80;99.90;;;;;;4923277;29;20106;-57
2022/07/22 01:49:39;;;;;;;16.70;4.63;;;15.80;99.90;;;;;;4922309;29;20483;-57
2022/07/22 01:52:05;;;;;;;17.70;4.05;;;15.80;99.90;;;;;;4923110;29;20167;-57
2022/07/22 01:54:31;;;;;;;12.88;4.32;;;16.00;99.90;;;;;;4921912;29;20101;-56
2022/07/22 01:56:57;;;;;;;17.15;4.13;;;15.80;99.90;;;;;;4922836;29;20717;-57
2022/07/22 01:59:22;;;;;;;14.55;4.53;;;15.80;99.90;;;;;;4923899;29;20039;-56
2022/07/22 02:01:48;;;;;;;18.30;4.70;;;15.80;99.90;;;;;;4926834;29;20039;-57
2022/07/22 02:04:14;;;;;;;20.77;4.85;;;15.80;99.90;;;;;;4925257;29;20047;-56
2022/07/22 02:06:40;;;;;;;14.23;4.63;;;15.90;99.90;;;;;;4920237;29;20439;-56
2022/07/22 02:09:06;;;;;;;14.32;4.25;;;15.90;99.90;;;;;;4915296;29;20052;-56
2022/07/22 02:11:32;;;;;;;12.57;4.35;;;15.90;99.90;;;;;;4906881;29;20122;-57
2022/07/22 02:13:58;;;;;;;15.65;4.30;;;15.90;99.90;;;;;;4906598;29;20115;-56
2022/07/22 02:16:24;;;;;;;13.25;4.80;;;15.80;99.90;;;;;;4906855;29;20060;-56
2022/07/22 02:18:50;;;;;;;17.55;4.50;;;15.80;99.90;;;;;;4906793;29;20048;-57
2022/07/22 02:21:16;;;;;;;16.08;4.85;;;15.80;99.90;;;;;;4906717;29;20434;-55
2022/07/22 02:23:42;;;;;;;13.02;4.07;;;15.90;99.90;;;;;;4907280;29;20047;-57
2022/07/22 02:26:08;;;;;;;13.00;3.85;;;16.00;99.90;;;;;;4906911;29;20048;-56
2022/07/22 02:28:34;;;;;;;14.65;4.05;;;16.00;99.90;;;;;;4905703;29;20051;-56
2022/07/22 02:30:59;;;;;;;17.05;4.18;;;15.90;99.90;;;;;;4889738;29;20064;-55
2022/07/22 02:33:25;;;;;;;10.52;3.30;;;15.90;99.90;;;;;;4905866;29;20056;-57
2022/07/22 02:35:51;;;;;;;13.15;3.60;;;15.80;99.90;;;;;;4907336;29;20149;-57
2022/07/22 02:38:16;;;;;;;13.25;3.65;;;15.90;99.90;;;;;;4906170;29;20197;-57
2022/07/22 02:40:42;;;;;;;18.02;3.88;;;15.90;99.90;;;;;;4889767;29;20052;-57
2022/07/22 02:43:07;;;;;;;10.48;3.35;;;15.90;99.90;;;;;;4905544;29;20139;-56
2022/07/22 02:45:33;;;;;;;15.25;3.42;;;15.80;99.90;;;;;;4906595;29;20051;-56
2022/07/22 02:47:59;;;;;;;12.88;3.67;;;15.70;99.90;;;;;;4906107;29;20055;-57
2022/07/22 02:50:25;;;;;;;13.95;3.80;;;15.70;99.90;;;;;;4906004;29;20081;-56
2022/07/22 02:52:51;;;;;;;13.70;3.78;;;15.70;99.90;;;;;;4906859;29;20080;-56
2022/07/22 02:55:17;;;;;;;11.25;3.60;;;15.70;99.90;;;;;;4904822;29;20871;-55
2022/07/22 02:57:43;;;;;;;11.50;3.17;;;15.70;99.90;;;;;;4907113;29;20040;-56
2022/07/22 03:00:11;;;;;;;11.93;3.35;;;15.70;99.90;;;;;;4906002;29;20040;-56
2022/07/22 03:02:37;;;;;;;13.15;3.33;;;15.70;99.90;;;;;;4905601;29;20048;-57
2022/07/22 03:05:04;;;;;;;11.75;3.58;;;15.70;99.90;;;;;;4906340;29;20059;-57
2022/07/22 03:07:30;;;;;;;14.00;3.67;;;15.70;99.90;;;;;;4915481;29;20058;-56
2022/07/22 03:09:55;;;;;;;9.38;3.22;;;15.70;99.90;;;;;;4906287;29;20040;-56
2022/07/22 03:12:21;;;;;;;11.52;3.03;;;15.70;99.90;;;;;;4906096;29;20040;-56
2022/07/22 03:14:47;;;;;;;9.10;2.63;;;15.60;99.90;;;;;;4906293;29;20067;-57
2022/07/22 03:17:12;;;;;;;17.20;2.92;;;15.70;99.90;;;;;;4906411;29;20083;-56
2022/07/22 03:19:38;;;;;;;15.32;3.10;;;15.70;99.90;;;;;;4888302;29;20040;-56
2022/07/22 03:22:04;;;;;;;12.40;2.60;;;15.70;99.90;;;;;;4889078;29;20060;-57
2022/07/22 03:24:29;;;;;;;8.82;2.67;;;15.60;99.90;;;;;;4905399;29;20701;-57
2022/07/22 03:26:55;;;;;;;8.63;3.03;;;15.70;99.90;;;;;;4905892;29;20109;-56
2022/07/22 03:29:20;;;;;;;12.55;2.90;;;15.70;99.90;;;;;;4905315;29;20092;-57
2022/07/22 03:31:46;;;;;;;10.00;2.95;;;15.70;99.90;;;;;;4906224;29;20605;-57
2022/07/22 03:34:12;;;;;;;10.25;3.15;;;15.80;99.90;;;;;;4905477;29;20709;-56
2022/07/22 03:36:37;;;;;;;11.98;2.90;;;15.80;99.90;;;;;;4905468;29;20043;-56
2022/07/22 03:39:03;;;;;;;10.80;2.67;;;15.90;99.90;;;;;;4905174;29;20084;-56
2022/07/22 03:41:29;;;;;;;7.40;2.90;;;15.80;99.90;;;;;;4905201;29;20058;-57
2022/07/22 03:43:55;;;;;;;10.57;3.22;;;15.90;99.90;;;;;;4905477;29;20040;-57
2022/07/22 03:46:20;;;;;;;12.45;2.97;;;15.90;99.90;;;;;;4904878;29;20052;-56
2022/07/22 03:48:46;;;;;;;10.20;3.17;;;15.90;99.90;;;;;;4904976;29;20052;-58
2022/07/22 03:51:12;;;;;;;11.50;2.72;;;15.90;99.90;;;;;;4905319;29;20040;-56
2022/07/22 03:53:38;;;;;;;7.80;2.70;;;15.90;99.90;;;;;;4904734;29;20721;-56
2022/07/22 03:56:04;;;;;;;14.20;3.17;;;15.90;99.90;;;;;;4904776;29;20036;-57
2022/07/22 03:58:30;;;;;;;7.25;2.67;;;15.80;99.90;;;;;;4905158;29;20415;-56
2022/07/22 04:00:55;;;;;;;12.02;3.05;;;15.70;99.90;;;;;;4905337;29;20059;-54
2022/07/22 04:03:21;;;;;;;13.75;3.33;;;15.70;99.90;;;;;;4904304;29;20711;-56
2022/07/22 04:05:47;;;;;;;11.93;3.42;;;15.70;99.90;;;;;;4905139;29;20052;-57
2022/07/22 04:08:13;;;;;;;10.20;2.90;;;15.70;99.90;;;;;;4915630;29;20132;-57
2022/07/22 04:10:39;;;;;;;10.02;2.72;;;15.70;99.90;;;;;;4905176;29;20040;-56
2022/07/22 04:13:05;;;;;;;11.23;3.10;;;15.70;99.90;;;;;;4905253;29;20570;-56
2022/07/22 04:15:31;;;;;;;6.40;2.50;;;15.60;99.90;;;;;;4904391;29;20103;-56
2022/07/22 04:17:57;;;;;;;9.68;2.90;;;15.70;99.90;;;;;;4904361;29;20083;-56
2022/07/22 04:20:22;;;;;;;11.25;3.17;;;15.70;99.90;;;;;;4904837;29;20110;-57
2022/07/22 04:22:48;;;;;;;11.50;3.17;;;15.70;99.90;;;;;;4904885;29;20051;-56
2022/07/22 04:25:14;;;;;;;9.57;3.17;;;15.70;99.90;;;;;;4904771;29;20543;-56
2022/07/22 04:27:40;;;;;;;7.97;2.75;;;15.70;99.90;;;;;;4904758;29;20427;-56
2022/07/22 04:30:07;;;;;;;8.00;2.80;;;15.70;99.90;;;;;;4904912;29;20048;-56
2022/07/22 04:32:33;;;;;;;8.85;2.75;;;15.70;99.90;;;;;;4904254;29;20040;-56
2022/07/22 04:34:58;;;;;;;10.40;3.03;;;15.70;99.90;;;;;;4887426;29;20071;-55
2022/07/22 04:37:24;;;;;;;11.40;2.85;;;15.70;99.90;;;;;;4904536;29;20047;-56
2022/07/22 04:39:50;;;;;;;11.60;2.80;;;15.70;99.90;;;;;;4904868;29;20624;-57
2022/07/22 04:42:15;;;;;;;11.07;3.40;;;15.80;99.90;;;;;;4887616;29;20059;-59
2022/07/22 04:44:41;;;;;;;12.98;3.05;;;15.70;99.90;;;;;;4904477;29;20047;-56
2022/07/22 04:47:06;;;;;;;8.02;2.72;;;15.70;99.90;;;;;;4904538;29;20080;-57
2022/07/22 04:49:32;;;;;;;13.35;3.13;;;15.70;99.90;;;;;;4903764;29;20044;-56
2022/07/22 04:51:58;;;;;;;13.98;3.25;;;15.70;99.90;;;;;;4904480;29;20051;-56
2022/07/22 04:54:23;;;;;;;13.07;3.00;;;15.80;99.90;;;;;;4903721;29;20056;-55
2022/07/22 04:56:49;;;;;;;12.88;3.45;;;15.70;99.90;;;;;;4904927;29;20052;-56
2022/07/22 04:59:15;;;;;;;10.35;2.63;;;15.60;99.90;;;;;;4904539;29;20048;-56
2022/07/22 05:01:40;;;;;;;11.57;2.88;;;15.70;99.90;;;;;;4904775;29;20060;-56
2022/07/22 05:04:06;;;;;;;10.07;2.95;;;15.60;99.90;;;;;;4903500;29;20032;-56
2022/07/22 05:06:32;;;;;;;9.48;2.70;;;15.70;99.90;;;;;;4906667;29;20187;-56
2022/07/22 05:08:57;;;;;;;10.73;2.70;;;15.80;99.90;;;;;;4912793;29;20096;-56
2022/07/22 05:11:23;;;;;;;12.32;3.75;;;15.80;99.90;;;;;;4903618;29;20669;-55
2022/07/22 05:13:49;;;;;;;9.38;3.00;;;15.80;99.90;;;;;;4904318;29;20618;-56
2022/07/22 05:16:14;;;;;;;8.55;2.35;;;15.90;99.90;;;;;;4904955;29;20730;-56
2022/07/22 05:18:40;;;;;;;10.07;2.72;;;15.90;99.90;;;;;;4903831;29;20482;-56
2022/07/22 05:21:06;;;;;;;6.75;2.30;;;16.00;99.90;;;;;;4903807;29;20133;-56
2022/07/22 05:23:32;;;;;;;8.98;2.72;;;16.00;99.90;;;;;;4904140;29;20036;-56
2022/07/22 05:25:57;;;;;;;10.80;3.30;;;16.00;99.90;;;;;;4904394;29;20052;-56
2022/07/22 05:28:24;;;;;;;6.93;2.20;;;16.00;99.90;;;;;;4887017;29;20084;-56
2022/07/22 05:30:49;;;;;;;10.32;2.65;;;16.00;99.90;;;;;;4903983;29;20091;-56
2022/07/22 05:33:15;;;;;;;7.88;2.33;;;16.00;99.90;;;;;;4904736;29;20737;-56
2022/07/22 05:35:41;;;;;;;9.38;2.70;;;16.00;99.90;;;;;;4908032;29;20059;-56
2022/07/22 05:38:06;;;;;;;7.88;2.17;;;16.00;99.90;;;;;;4907830;29;20083;-58
2022/07/22 05:40:32;;;;;;;9.50;2.33;;;16.00;99.90;;;;;;4906995;29;20496;-56
2022/07/22 05:42:58;;;;;;;7.05;2.33;;;16.00;99.90;;;;;;4907825;29;20052;-57
2022/07/22 05:45:24;;;;;;;7.28;2.70;;;16.00;99.90;;;;;;4907325;29;20059;-56
2022/07/22 05:47:49;;;;;;;9.75;2.10;;;16.10;99.90;;;;;;4906925;29;20048;-56
2022/07/22 05:50:15;;;;;;;7.15;2.30;;;16.10;99.90;;;;;;4907261;29;20048;-55
2022/07/22 05:52:41;;;;;;;6.20;1.92;;;16.10;99.90;;;;;;4907925;29;20096;-56
2022/07/22 05:55:07;;;;;;;7.43;2.42;;;16.10;99.90;;;;;;4907770;29;20044;-56
2022/07/22 05:57:32;;;;;;;6.20;2.08;;;16.20;99.90;;;;;;4907562;29;20083;-56
2022/07/22 05:59:58;;;;;;;6.68;2.00;;;16.30;99.90;;;;;;4906829;29;20083;-55
2022/07/22 06:02:24;;;;;;;4.78;1.83;;;16.10;99.90;;;;;;4906368;29;20099;-57
2022/07/22 06:04:50;;;;;;;5.95;2.05;;;16.20;99.90;;;;;;4907531;29;20052;-57
2022/07/22 06:07:15;;;;;;;7.00;2.03;;;16.30;99.90;;;;;;4914623;29;20051;-57
2022/07/22 06:09:41;;;;;;;7.45;2.17;;;16.30;99.90;;;;;;4910060;29;20065;-55
2022/07/22 06:12:07;;;;;;;7.28;2.13;;;16.20;99.90;;;;;;4906886;29;20052;-56
2022/07/22 06:14:33;;;;;;;8.65;1.73;;;16.10;99.90;;;;;;4889717;29;20052;-56
2022/07/22 06:16:59;;;;;;;11.50;2.80;;;16.20;99.90;;;;;;4906900;29;20466;-58
2022/07/22 06:19:25;;;;;;;7.18;2.08;;;16.20;99.90;;;;;;4905600;29;20119;-56
2022/07/22 06:21:51;;;;;;;6.95;2.35;;;16.10;99.90;;;;;;4907134;29;20052;-55
2022/07/22 06:24:16;;;;;;;9.10;2.13;;;16.10;99.90;;;;;;4906693;29;20037;-56
2022/07/22 06:26:43;;;;;;;6.57;1.90;;;16.20;99.90;;;;;;4907472;29;20044;-57
2022/07/22 06:29:09;;;;;;;9.23;1.98;;;16.20;99.90;;;;;;4906159;29;20052;-57
2022/07/22 06:31:34;;;;;;;7.50;1.92;;;16.20;99.90;;;;;;4906642;29;20104;-56
2022/07/22 06:34:00;;;;;;;7.90;2.03;;;16.30;99.90;;;;;;4905759;29;20048;-56
2022/07/22 06:36:25;;;;;;;6.85;2.33;;;16.30;99.90;;;;;;4906276;29;20048;-56
2022/07/22 06:38:51;;;;;;;4.93;1.70;;;16.30;99.90;;;;;;4889519;29;20048;-56
2022/07/22 06:41:19;;;;;;;9.02;1.73;;;16.30;99.90;;;;;;4889130;29;20052;-57
2022/07/22 06:43:45;;;;;;;4.47;1.70;;;16.30;99.90;;;;;;4906883;29;20052;-55
2022/07/22 06:46:11;;;;;;;13.73;2.83;;;16.40;99.90;;;;;;4905314;29;20044;-54
2022/07/22 06:48:37;;;;;;;7.07;1.98;;;16.30;99.90;;;;;;4905544;29;20118;-55
2022/07/22 06:51:02;;;;;;;6.78;2.13;;;16.50;99.90;;;;;;4889649;29;20352;-54
2022/07/22 06:53:28;;;;;;;7.97;2.25;;;16.50;99.90;;;;;;4906076;29;20064;-54
2022/07/22 06:55:54;;;;;;;4.55;1.80;;;16.60;99.90;;;;;;4906129;29;20048;-55
2022/07/22 06:58:19;;;;;;;5.13;1.98;;;16.60;99.90;;;;;;4895422;29;20773;-55
2022/07/22 07:00:45;;;;;;;4.80;1.67;;;16.60;99.90;;;;;;4934633;29;20781;-54
2022/07/22 07:03:11;;;;;;;7.60;1.80;;;16.90;99.90;;;;;;4933131;29;20054;-53
2022/07/22 07:05:37;;;;;;;7.05;2.03;;;16.80;99.90;;;;;;4929098;29;20059;-55
2022/07/22 07:08:03;;;;;;;6.78;1.73;;;16.90;99.90;;;;;;4916973;29;20052;-55
2022/07/22 07:10:28;;;;;;;6.97;1.58;;;16.80;99.90;;;;;;4905950;29;20511;-54
2022/07/22 07:12:58;;;;;;;6.75;1.63;;;16.80;99.90;;;;;;4889026;29;20119;-55
2022/07/22 07:15:25;;;;;;;4.80;1.50;;;17.00;99.90;;;;;;4905243;29;20063;-56
2022/07/22 07:17:52;;;;;;;8.95;1.92;;;17.10;99.90;;;;;;4905275;29;20635;-55
2022/07/22 07:20:17;;;;;;;4.40;1.50;;;17.10;99.90;;;;;;4905723;29;20541;-57
2022/07/22 07:22:43;;;;;;;6.00;1.55;;;17.20;99.90;;;;;;4915781;29;20190;-56
2022/07/22 07:25:09;;;;;;;5.35;1.40;;;17.20;99.90;;;;;;4923399;29;20789;-56
2022/07/22 07:27:36;;;;;;;5.50;1.77;;;17.20;99.90;;;;;;4922925;29;20487;-54
2022/07/22 07:30:04;;;;;;;3.63;1.25;;;17.10;99.90;;;;;;4923312;29;20056;-56
2022/07/22 07:32:29;;;;;;;5.40;1.58;;;17.30;99.90;;;;;;4922128;29;20047;-55
2022/07/22 07:34:55;;;;;;;7.55;2.10;;;17.30;99.90;;;;;;4905858;29;20052;-55
2022/07/22 07:37:21;;;;;;;6.05;1.50;;;17.30;99.90;;;;;;4917226;29;20056;-55
2022/07/22 07:39:47;;;;;;;5.88;1.60;;;17.30;99.90;;;;;;4924596;29;20044;-57
2022/07/22 07:42:13;;;;;;;6.45;1.38;;;17.30;99.90;;;;;;4923091;29;20043;-55
2022/07/22 07:44:38;;;;;;;5.72;1.70;;;17.30;99.90;;;;;;4924464;29;20510;-55
2022/07/22 07:47:04;;;;;;;5.07;1.70;;;17.30;99.90;;;;;;4923960;29;20062;-54
2022/07/22 07:49:30;;;;;;;6.65;1.80;;;17.40;99.90;;;;;;4924385;29;20052;-55
2022/07/22 07:51:56;;;;;;;4.28;1.65;;;17.50;99.90;;;;;;4924017;29;20500;-57
2022/07/22 07:54:21;;;;;;;5.20;1.63;;;17.50;99.90;;;;;;4924015;29;20035;-55
2022/07/22 07:56:47;;;;;;;5.80;1.60;;;17.70;99.90;;;;;;4923981;29;20047;-57
2022/07/22 07:59:16;;;;;;;8.07;1.50;;;17.80;99.90;;;;;;4924236;29;20102;-55
2022/07/22 08:01:42;;;;;;;4.25;1.40;;;17.90;99.90;;;;;;4924106;29;20059;-57
2022/07/22 08:04:08;;;;;;;6.78;1.42;;;17.90;99.90;;;;;;4923901;29;20063;-55
2022/07/22 08:06:34;;;;;;;9.90;1.90;;;17.70;99.90;;;;;;4918313;29;20052;-56
2022/07/22 08:08:59;;;;;;;6.50;1.40;;;17.70;99.90;;;;;;4913787;29;20095;-56
2022/07/22 08:11:25;;;;;;;5.85;1.55;;;17.70;99.90;;;;;;4887176;29;20070;-54
2022/07/22 08:13:51;;;;;;;4.75;1.30;;;17.70;99.90;;;;;;4926374;29;20055;-56
2022/07/22 08:16:16;;;;;;;7.20;1.88;;;17.70;99.90;;;;;;4925058;29;20055;-56
2022/07/22 08:18:42;;;;;;;4.00;1.20;;;17.90;99.90;;;;;;4923890;29;20097;-57
2022/07/22 08:21:08;;;;;;;4.50;1.35;;;18.00;99.90;;;;;;4923268;29;20079;-54
2022/07/22 08:23:34;;;;;;;4.45;1.35;;;18.20;99.90;;;;;;4923438;29;20054;-55
2022/07/22 08:26:00;;;;;;;4.65;1.50;;;18.10;99.90;;;;;;4923718;29;20052;-55
2022/07/22 08:28:26;;;;;;;2.55;1.02;;;17.90;99.90;;;;;;4923441;29;20047;-57
2022/07/22 08:30:52;;;;;;;4.18;1.33;;;18.00;99.90;;;;;;4923525;29;20091;-54
2022/07/22 08:33:18;;;;;;;3.90;1.00;;;17.80;99.90;;;;;;4922774;29;20091;-56
2022/07/22 08:35:43;;;;;;;3.90;1.15;;;18.00;99.90;;;;;;4924362;29;20044;-56
2022/07/22 08:38:09;;;;;;;3.00;1.15;;;18.00;99.90;;;;;;4923691;29;20562;-58
2022/07/22 08:40:35;;;;;;;3.80;1.10;;;17.90;99.90;;;;;;4923160;29;20662;-55
2022/07/22 08:43:02;;;;;;;4.30;1.20;;;18.10;99.90;;;;;;4923461;29;20043;-55
2022/07/22 08:45:30;;;;;;;3.60;1.30;;;18.10;99.90;;;;;;4923307;29;20122;-55
2022/07/22 08:47:56;;;;;;;2.80;1.08;;;18.30;99.90;;;;;;4922570;29;20077;-56
2022/07/22 08:50:22;;;;;;;4.50;1.15;;;18.30;99.90;;;;;;4922713;29;20047;-54
2022/07/22 08:52:49;;;;;;;4.65;1.30;;;18.40;99.90;;;;;;4923434;29;20043;-56
2022/07/22 08:55:15;;;;;;;3.58;1.10;;;18.60;99.90;;;;;;4923658;29;20087;-55
2022/07/22 08:57:48;;;;;;;5.55;1.27;;;18.40;99.90;;;;;;4923002;29;20052;-56
2022/07/22 09:00:17;;;;;;;6.72;1.48;;;18.50;99.90;;;;;;4923672;29;20078;-59
2022/07/22 09:02:43;;;;;;;74.75;5.78;;;18.60;99.90;;;;;;4923070;29;20047;-66
2022/07/22 09:05:11;;;;;;;7.15;1.50;;;19.00;99.90;;;;;;4923206;29;20115;-67
2022/07/22 09:07:38;;;;;;;7.82;1.10;;;19.20;99.90;;;;;;4916746;29;20102;-67
2022/07/22 09:10:16;;;;;;;6.07;1.40;;;19.40;99.90;;;;;;4908156;29;20649;-67
2022/07/22 09:12:59;;;;;;;4.65;1.10;;;19.40;99.90;;;;;;4908150;29;20123;-67
2022/07/22 09:15:35;;;;;;;4.53;1.65;;;19.70;99.90;;;;;;4907653;29;20256;-67
2022/07/22 09:18:02;;;;;;;2.80;0.90;;;19.70;99.90;;;;;;4907639;29;20411;-66
2022/07/22 09:20:28;;;;;;;7.78;1.50;;;19.90;99.90;;;;;;4906908;29;20091;-66
2022/07/22 09:22:55;;;;;;;9.15;1.48;;;20.00;99.90;;;;;;4908121;29;20048;-69
2022/07/22 09:25:35;;;;;;;4.85;1.08;;;19.80;99.90;;;;;;4901563;29;20044;-66
2022/07/22 09:28:06;;;;;;;3.85;1.10;;;20.00;99.90;;;;;;4933150;29;20094;-65
2022/07/22 09:30:34;;;;;;;3.28;1.02;;;19.80;99.90;;;;;;4945738;29;20049;-65
2022/07/22 09:33:00;;;;;;;4.07;1.33;;;19.80;99.90;;;;;;4931735;29;20338;-65
2022/07/22 09:35:27;;;;;;;7.50;1.38;;;19.70;99.90;;;;;;4925760;29;20094;-65
2022/07/22 09:37:55;;;;;;;4.78;1.13;;;19.70;99.90;;;;;;4926464;29;20043;-64
2022/07/22 09:40:30;;;;;;;6.10;1.17;;;19.80;99.90;;;;;;4918766;29;20043;-65
2022/07/22 09:42:58;;;;;;;3.08;0.80;;;19.80;99.90;;;;;;4943892;29;20054;-64
2022/07/22 09:45:25;;;;;;;4.85;1.00;;;19.90;99.90;;;;;;4927112;29;20047;-64
2022/07/22 09:47:53;;;;;;;8.15;1.50;;;19.90;99.90;;;;;;4925867;29;20056;-65
2022/07/22 09:50:22;;;;;;;5.82;1.30;;;20.00;99.90;;;;;;4924385;29;20054;-65
2022/07/22 09:52:49;;;;;;;3.55;1.30;;;19.90;99.90;;;;;;4925884;29;20054;-64
2022/07/22 09:55:17;;;;;;;4.88;1.25;;;19.40;99.90;;;;;;4926289;29;20151;-65
2022/07/22 09:57:43;;;;;;;5.82;1.55;;;19.40;99.90;;;;;;4926606;29;20332;-64
2022/07/22 10:00:11;;;;;;;4.53;1.30;;;19.10;99.90;;;;;;4925770;29;20155;-64
2022/07/22 10:02:46;;;;;;;5.65;1.27;;;18.90;99.90;;;;;;4907385;29;20058;-65
2022/07/22 10:05:13;;;;;;;7.53;1.42;;;18.80;99.90;;;;;;4925910;29;20055;-65
2022/07/22 10:07:42;;;;;;;16.65;1.92;;;19.00;99.90;;;;;;4919775;29;20048;-65
2022/07/22 10:10:09;;;;;;;7.90;1.73;;;19.00;99.90;;;;;;4906557;29;20052;-66
2022/07/22 10:12:36;;;;;;;5.22;1.13;;;19.10;99.90;;;;;;4906349;29;20048;-66
2022/07/22 10:15:03;;;;;;;6.53;1.02;;;19.10;99.90;;;;;;4906945;29;20059;-66
2022/07/22 10:17:29;;;;;;;6.47;1.30;;;18.90;99.90;;;;;;4905603;29;20079;-66
2022/07/22 10:19:57;;;;;;;7.28;1.30;;;19.10;99.90;;;;;;4906144;29;20194;-66
2022/07/22 10:22:41;;;;;;;6.78;1.42;;;19.30;99.90;;;;;;4906236;29;20518;-56
2022/07/22 10:25:09;;;;;;;5.85;1.30;;;19.50;99.90;;;;;;4905069;29;20135;-58
2022/07/22 10:27:58;;;;;;;5.38;1.13;;;19.00;99.90;;;;;;4932122;29;20278;-56
2022/07/22 10:30:31;;;;;;;5.18;1.00;;;18.90;99.90;;;;;;4905860;29;20090;-56
2022/07/22 10:33:19;;;;;;;3.85;1.10;;;18.90;99.90;;;;;;4915769;29;20043;-58
2022/07/22 10:36:02;;;;;;;5.47;1.10;;;18.90;99.90;;;;;;4925673;29;20054;-58
2022/07/22 10:38:30;;;;;;;5.57;1.00;;;18.90;99.90;;;;;;4924920;29;20043;-58
2022/07/22 10:40:59;;;;;;;2.88;1.05;;;18.90;99.90;;;;;;4925361;29;20050;-59
2022/07/22 10:43:45;;;;;;;3.95;0.80;;;18.90;99.90;;;;;;4924870;29;20048;-58
2022/07/22 10:46:10;;;;;;;5.88;1.45;;;19.00;99.90;;;;;;4925447;29;20051;-59
2022/07/22 10:48:36;;;;;;;3.65;1.00;;;19.30;99.90;;;;;;4924298;29;20570;-59
2022/07/22 10:51:13;;;;;;;4.60;1.20;;;19.30;99.90;;;;;;4924807;29;20040;-58
2022/07/22 10:53:57;;;;;;;3.03;0.90;;;19.40;99.90;;;;;;4924898;29;20072;-58
2022/07/22 10:56:35;;;;;;;4.93;1.17;;;19.40;99.90;;;;;;4924672;29;20130;-50
2022/07/22 10:59:11;;;;;;;4.78;1.45;;;19.40;99.90;;;;;;4924942;29;20286;-58
2022/07/22 11:01:42;;;;;;;5.80;1.38;;;19.40;99.90;;;;;;4923738;29;20052;-58
2022/07/22 11:04:16;;;;;;;4.35;1.15;;;19.30;99.90;;;;;;4924058;29;20044;-59
2022/07/22 11:06:43;;;;;;;3.53;0.80;;;19.60;99.90;;;;;;4918913;29;20055;-59
2022/07/22 11:09:11;;;;;;;5.03;1.25;;;19.60;99.90;;;;;;4912994;29;20044;-59
2022/07/22 11:11:49;;;;;;;6.50;1.30;;;19.80;99.90;;;;;;4904735;29;20051;-59
2022/07/22 11:14:25;;;;;;;5.20;1.33;;;19.80;99.90;;;;;;4888701;29;20427;-59
2022/07/22 11:16:51;;;;;;;2.63;1.05;;;19.90;99.90;;;;;;4904952;29;20143;-59
2022/07/22 11:19:28;;;;;;;5.30;1.40;;;20.10;99.90;;;;;;4887649;29;20072;-61
2022/07/22 11:21:57;;;;;;;5.80;1.10;;;20.40;99.90;;;;;;4918165;29;20098;-58
2022/07/22 11:24:24;;;;;;;4.28;1.17;;;20.40;99.90;;;;;;4924138;29;20687;-59
2022/07/22 11:26:52;;;;;;;2.22;1.00;;;20.30;99.90;;;;;;4922780;29;20130;-58
2022/07/22 11:29:25;;;;;;;4.93;1.02;;;19.80;99.90;;;;;;4924239;29;20125;-59
2022/07/22 11:31:50;;;;;;;5.90;1.00;;;19.80;99.90;;;;;;4922742;29;20051;-59
2022/07/22 11:34:16;;;;;;;3.92;1.00;;;19.60;99.90;;;;;;4923433;29;20048;-59
2022/07/22 11:36:44;;;;;;;5.85;1.45;;;19.90;99.90;;;;;;4924678;29;20515;-60
2022/07/22 11:39:12;;;;;;;3.28;1.10;;;19.90;99.90;;;;;;4924190;29;20138;-58
2022/07/22 11:41:38;;;;;;;3.78;0.98;;;20.30;99.90;;;;;;4923619;29;20114;-59
2022/07/22 11:44:04;;;;;;;5.95;1.38;;;20.30;99.90;;;;;;4923581;29;20036;-59
2022/07/22 11:46:38;;;;;;;5.13;1.48;;;20.40;99.90;;;;;;4922678;29;20170;-59
2022/07/22 11:49:05;;;;;;;5.25;1.20;;;20.30;99.90;;;;;;4924356;29;20557;-58
2022/07/22 11:51:32;;;;;;;8.75;1.45;;;20.30;99.90;;;;;;4922951;29;20397;-59
2022/07/22 11:53:59;;;;;;;6.65;1.02;;;20.20;99.90;;;;;;4923908;29;20105;-59
2022/07/22 11:56:25;;;;;;;3.67;1.10;;;20.20;99.90;;;;;;4923364;29;20071;-59
2022/07/22 11:58:56;;;;;;;4.78;1.20;;;20.10;99.90;;;;;;4924123;29;20055;-59
2022/07/22 12:01:25;;;;;;;2.63;1.20;;;20.00;99.90;;;;;;4922212;29;20055;-59
2022/07/22 12:03:54;;;;;;;5.68;1.10;;;19.90;99.90;;;;;;4923689;29;20056;-57
2022/07/22 12:06:21;;;;;;;4.07;1.38;;;19.90;99.90;;;;;;4920554;29;20114;-57
2022/07/22 12:09:02;;;;;;;4.20;1.20;;;19.90;99.90;;;;;;4925185;29;20047;-58
2022/07/22 12:11:29;;;;;;;2.55;0.90;;;20.10;99.90;;;;;;4930623;29;20535;-57
2022/07/22 12:13:54;;;;;;;6.25;1.58;;;20.10;99.90;;;;;;4930693;29;20052;-57
2022/07/22 12:16:29;;;;;;;5.40;1.20;;;20.10;99.90;;;;;;4905336;29;20103;-57
2022/07/22 12:18:59;;;;;;;3.72;1.10;;;20.30;99.90;;;;;;4924018;29;20044;-56
2022/07/22 12:21:27;;;;;;;4.07;0.90;;;20.30;99.90;;;;;;4923210;29;20094;-56
2022/07/22 12:24:00;;;;;;;2.60;0.88;;;20.20;99.90;;;;;;4923453;29;20146;-57
2022/07/22 12:26:48;;;;;;;3.22;0.90;;;20.40;99.90;;;;;;4923529;29;20443;-56
2022/07/22 12:29:13;;;;;;;3.85;0.77;;;20.60;99.90;;;;;;4923242;29;20123;-56
2022/07/22 12:31:47;;;;;;;3.60;1.10;;;20.70;99.90;;;;;;4922932;29;20194;-57
2022/07/22 12:34:13;;;;;;;3.72;0.80;;;20.70;99.90;;;;;;4923545;29;20103;-57
2022/07/22 12:36:43;;;;;;;6.43;0.95;;;20.50;99.90;;;;;;4918694;29;20039;-56
2022/07/22 12:39:18;;;;;;;3.65;0.80;;;20.10;99.90;;;;;;4920123;29;20078;-57
2022/07/22 12:41:47;;;;;;;;;;;20.40;99.90;;;;;;4925064;28;20061;-57